Time;durP1;ratioP1;P1;durP2;ratioP2;P2;SDS_P1;SDS_P2;PMS_P1;PMS_P2;Temp;Humidity;BMP_temperature;BMP_pressure;BME280_temperature;BME280_humidity;BME280_pressure;Samples;Min_cycle;Max_cycle;Signal;HPM_P1;HPM_P2
2022/08/28 00:00:19;;;;;;;5.78;2.13;;;19.70;99.90;;;;;;5059172;28;20029;-60
2022/08/28 00:02:45;;;;;;;4.05;1.80;;;19.60;99.90;;;;;;5059267;28;20052;-60
2022/08/28 00:05:12;;;;;;;7.57;2.10;;;19.40;99.90;;;;;;5059231;28;20061;-60
2022/08/28 00:07:38;;;;;;;3.28;1.90;;;19.40;99.90;;;;;;5059166;28;20048;-60
2022/08/28 00:10:06;;;;;;;6.60;2.25;;;19.50;99.90;;;;;;5059354;28;20310;-59
2022/08/28 00:12:32;;;;;;;4.03;1.83;;;19.50;99.90;;;;;;5059102;28;20063;-59
2022/08/28 00:14:58;;;;;;;5.25;1.90;;;19.50;99.90;;;;;;5058497;28;20060;-59
2022/08/28 00:17:24;;;;;;;4.55;1.83;;;19.30;99.90;;;;;;5058981;28;20124;-60
2022/08/28 00:19:50;;;;;;;5.30;2.17;;;19.30;99.90;;;;;;5058035;28;20080;-59
2022/08/28 00:22:16;;;;;;;4.63;2.20;;;19.30;99.90;;;;;;5058904;28;20439;-60
2022/08/28 00:24:43;;;;;;;4.75;1.98;;;19.30;99.90;;;;;;5058808;28;20065;-61
2022/08/28 00:29:53;;;;;;;5.93;2.00;;;19.10;99.90;;;;;;5058953;28;20037;-60
2022/08/28 00:32:22;;;;;;;7.32;2.28;;;19.10;99.90;;;;;;5059039;28;20048;-60
2022/08/28 00:34:48;;;;;;;9.52;2.45;;;19.20;99.90;;;;;;5058910;28;20044;-60
2022/08/28 00:37:14;;;;;;;6.43;2.17;;;19.20;99.90;;;;;;5058645;28;20119;-60
2022/08/28 00:39:40;;;;;;;7.63;2.72;;;19.20;99.90;;;;;;5058806;28;20029;-60
2022/08/28 00:42:06;;;;;;;7.55;2.20;;;19.20;99.90;;;;;;5058456;28;20039;-60
2022/08/28 00:44:32;;;;;;;7.68;2.30;;;19.00;99.90;;;;;;5057716;28;20100;-60
2022/08/28 00:46:58;;;;;;;5.53;2.35;;;19.00;99.90;;;;;;5058464;28;20032;-60
2022/08/28 00:49:39;;;;;;;10.02;2.45;;;19.10;99.90;;;;;;5057980;28;20025;-60
2022/08/28 00:52:10;;;;;;;5.72;2.25;;;19.00;99.90;;;;;;5057640;28;20139;-60
2022/08/28 00:54:58;;;;;;;6.38;2.47;;;19.10;99.90;;;;;;5058279;28;20122;-60
2022/08/28 00:57:44;;;;;;;6.30;2.55;;;19.00;99.90;;;;;;5057951;28;20025;-60
2022/08/28 01:00:13;;;;;;;4.55;2.55;;;18.90;99.90;;;;;;5058240;28;20316;-58
2022/08/28 01:02:39;;;;;;;7.07;2.80;;;18.70;99.90;;;;;;5058126;28;20265;-59
2022/08/28 01:05:08;;;;;;;7.35;2.67;;;18.90;99.90;;;;;;5040699;28;20029;-59
2022/08/28 01:07:35;;;;;;;7.25;2.65;;;18.80;99.90;;;;;;5058317;28;20091;-59
2022/08/28 01:10:02;;;;;;;7.10;3.05;;;18.70;99.90;;;;;;5057979;28;20290;-59
2022/08/28 01:12:31;;;;;;;7.97;2.50;;;18.70;99.90;;;;;;5057932;28;20078;-58
2022/08/28 01:15:01;;;;;;;7.85;2.88;;;18.80;99.90;;;;;;5058107;28;20048;-59
2022/08/28 01:17:30;;;;;;;8.88;2.80;;;18.80;99.90;;;;;;5057883;28;20352;-59
2022/08/28 01:20:01;;;;;;;4.60;2.53;;;18.70;99.90;;;;;;5057601;28;20036;-59
2022/08/28 01:22:36;;;;;;;7.47;2.80;;;18.70;99.90;;;;;;5058075;28;20059;-58
2022/08/28 01:25:10;;;;;;;6.05;2.50;;;18.70;99.90;;;;;;5057856;28;20362;-59
2022/08/28 01:27:36;;;;;;;9.13;2.85;;;18.80;99.90;;;;;;5057723;28;20082;-59
2022/08/28 01:30:01;;;;;;;5.18;2.53;;;18.80;99.90;;;;;;5057586;28;20392;-59
2022/08/28 01:32:34;;;;;;;5.55;2.83;;;18.70;99.90;;;;;;5057487;28;20036;-59
2022/08/28 01:35:01;;;;;;;9.52;3.10;;;18.70;99.90;;;;;;5073340;28;20097;-58
2022/08/28 01:37:28;;;;;;;8.07;3.00;;;18.60;99.90;;;;;;5056666;28;20397;-58
2022/08/28 01:39:54;;;;;;;7.28;3.33;;;18.70;99.90;;;;;;5056624;28;20051;-60
2022/08/28 01:42:20;;;;;;;7.75;3.40;;;18.70;99.90;;;;;;5056543;28;20048;-59
2022/08/28 01:44:46;;;;;;;6.45;3.25;;;18.60;99.90;;;;;;5056674;28;20312;-59
2022/08/28 01:47:12;;;;;;;8.68;2.90;;;18.70;99.90;;;;;;5057363;28;20127;-59
2022/08/28 01:49:38;;;;;;;10.70;3.33;;;18.60;99.90;;;;;;5057084;28;20087;-59
2022/08/28 01:52:04;;;;;;;7.43;3.30;;;18.60;99.90;;;;;;5056557;28;20132;-59
2022/08/28 01:54:29;;;;;;;9.35;3.00;;;18.50;99.90;;;;;;5057202;28;20044;-59
2022/08/28 01:56:55;;;;;;;9.45;3.40;;;18.40;99.90;;;;;;5057083;28;20040;-60
2022/08/28 01:59:21;;;;;;;8.02;3.22;;;18.30;99.90;;;;;;5057117;28;20038;-60
2022/08/28 02:01:47;;;;;;;9.55;3.25;;;18.30;99.90;;;;;;5056989;28;20413;-60
2022/08/28 02:04:13;;;;;;;7.07;3.10;;;18.40;99.90;;;;;;5057011;28;20320;-60
2022/08/28 02:06:40;;;;;;;7.75;2.80;;;18.30;99.90;;;;;;5057033;28;20045;-61
2022/08/28 02:09:07;;;;;;;8.63;3.33;;;18.40;99.90;;;;;;5057204;28;20033;-58
2022/08/28 02:11:33;;;;;;;11.43;3.28;;;18.20;99.90;;;;;;5056915;28;20397;-59
2022/08/28 02:14:00;;;;;;;7.13;3.10;;;18.10;99.90;;;;;;5056874;28;20037;-59
2022/08/28 02:16:26;;;;;;;8.82;3.05;;;18.20;99.90;;;;;;5056868;28;20032;-58
2022/08/28 02:18:52;;;;;;;12.63;3.33;;;18.20;99.90;;;;;;5056600;28;20037;-58
2022/08/28 02:21:18;;;;;;;7.72;3.17;;;18.00;99.90;;;;;;5055825;28;20033;-59
2022/08/28 02:23:45;;;;;;;7.78;3.10;;;18.00;99.90;;;;;;5056565;28;20328;-58
2022/08/28 02:26:13;;;;;;;10.20;3.00;;;17.80;99.90;;;;;;5056771;28;20033;-59
2022/08/28 02:28:39;;;;;;;7.35;2.88;;;17.90;99.90;;;;;;5056717;28;20021;-59
2022/08/28 02:31:08;;;;;;;8.30;2.75;;;17.90;99.90;;;;;;5057344;28;20036;-59
2022/08/28 02:33:42;;;;;;;13.77;2.63;;;17.80;99.90;;;;;;5057224;28;20029;-59
2022/08/28 02:36:10;;;;;;;10.68;3.28;;;17.50;99.90;;;;;;5056765;28;20045;-59
2022/08/28 02:38:37;;;;;;;10.43;3.08;;;17.40;99.90;;;;;;5056679;28;20067;-59
2022/08/28 02:41:04;;;;;;;10.70;3.00;;;17.40;99.90;;;;;;5056579;28;20052;-59
2022/08/28 02:43:30;;;;;;;7.68;2.72;;;17.40;99.90;;;;;;5056769;28;20029;-59
2022/08/28 02:45:55;;;;;;;7.63;2.80;;;17.40;99.90;;;;;;5055929;28;20305;-59
2022/08/28 02:48:22;;;;;;;7.82;3.08;;;17.50;99.90;;;;;;5057020;28;20049;-58
2022/08/28 02:50:48;;;;;;;11.57;3.05;;;17.40;99.90;;;;;;5058987;28;20354;-58
2022/08/28 02:53:14;;;;;;;9.00;2.72;;;17.40;99.90;;;;;;5060543;28;20198;-59
2022/08/28 02:55:40;;;;;;;9.68;2.78;;;17.50;99.90;;;;;;5076529;28;20036;-59
2022/08/28 02:58:08;;;;;;;9.55;2.58;;;17.50;99.90;;;;;;5059863;28;20116;-59
2022/08/28 03:00:34;;;;;;;8.32;3.03;;;17.50;99.90;;;;;;5060305;28;20043;-59
2022/08/28 03:02:59;;;;;;;6.10;2.45;;;17.40;99.90;;;;;;5060399;28;20460;-59
2022/08/28 03:05:25;;;;;;;7.80;3.00;;;17.40;99.90;;;;;;5060387;28;20024;-59
2022/08/28 03:07:55;;;;;;;6.53;2.60;;;17.60;99.90;;;;;;5060327;28;20057;-59
2022/08/28 03:10:21;;;;;;;9.95;2.80;;;17.60;99.90;;;;;;5059633;28;20333;-59
2022/08/28 03:12:47;;;;;;;8.93;2.50;;;17.60;99.90;;;;;;5060580;28;20029;-58
2022/08/28 03:15:13;;;;;;;11.43;2.83;;;17.50;99.90;;;;;;5059402;28;20025;-59
2022/08/28 03:17:39;;;;;;;6.63;2.80;;;17.50;99.90;;;;;;5059492;28;20073;-59
2022/08/28 03:20:07;;;;;;;8.98;2.60;;;17.50;99.90;;;;;;5059225;28;20304;-59
2022/08/28 03:25:18;;;;;;;7.63;2.40;;;17.70;99.90;;;;;;5060198;28;20379;-59
2022/08/28 03:27:43;;;;;;;9.70;2.70;;;17.60;99.90;;;;;;5060327;28;20029;-59
2022/08/28 03:30:10;;;;;;;9.90;2.40;;;17.60;99.90;;;;;;5059870;28;20051;-59
2022/08/28 03:32:36;;;;;;;11.05;2.78;;;17.70;99.90;;;;;;5060198;28;20028;-59
2022/08/28 03:35:04;;;;;;;6.95;2.80;;;17.70;99.90;;;;;;5059100;28;20033;-59
2022/08/28 03:37:30;;;;;;;7.80;2.67;;;17.70;99.90;;;;;;5059805;28;20044;-60
2022/08/28 03:39:56;;;;;;;6.90;2.33;;;17.60;99.90;;;;;;5059892;28;20037;-59
2022/08/28 03:42:22;;;;;;;6.68;2.47;;;17.60;99.90;;;;;;5059554;28;20506;-59
2022/08/28 03:44:48;;;;;;;10.18;2.25;;;17.50;99.90;;;;;;5059718;28;20099;-59
2022/08/28 03:47:15;;;;;;;9.43;2.63;;;17.60;99.90;;;;;;5059540;28;20032;-60
2022/08/28 03:49:41;;;;;;;7.15;2.25;;;17.50;99.90;;;;;;5058893;28;20112;-60
2022/08/28 03:52:07;;;;;;;8.50;2.30;;;17.60;99.90;;;;;;5059542;28;20025;-59
2022/08/28 03:54:33;;;;;;;7.63;2.25;;;17.60;99.90;;;;;;5059487;28;20033;-60
2022/08/28 03:56:59;;;;;;;6.10;2.10;;;17.60;99.90;;;;;;5058647;28;20144;-60
2022/08/28 03:59:24;;;;;;;8.73;2.40;;;17.60;99.90;;;;;;5059403;28;20037;-59
2022/08/28 04:01:51;;;;;;;7.82;2.53;;;17.70;99.90;;;;;;5057879;28;20402;-59
2022/08/28 04:04:16;;;;;;;7.03;2.60;;;17.70;99.90;;;;;;5059253;28;20366;-60
2022/08/28 04:06:42;;;;;;;6.38;2.20;;;17.70;99.90;;;;;;5059837;28;20095;-59
2022/08/28 04:09:08;;;;;;;9.18;2.15;;;17.60;99.90;;;;;;5059098;28;20120;-59
2022/08/28 04:11:41;;;;;;;8.43;2.13;;;17.50;99.90;;;;;;5059650;28;20285;-60
2022/08/28 04:14:07;;;;;;;8.32;2.20;;;17.30;99.90;;;;;;5059391;28;20098;-60
2022/08/28 04:16:34;;;;;;;9.75;2.75;;;17.30;99.90;;;;;;5058367;28;20071;-60
2022/08/28 04:18:59;;;;;;;7.63;2.30;;;17.30;99.90;;;;;;5058922;28;20925;-60
2022/08/28 04:21:26;;;;;;;6.60;2.22;;;17.20;99.90;;;;;;5059489;28;20107;-59
2022/08/28 04:23:54;;;;;;;7.88;2.50;;;17.30;99.90;;;;;;5059125;28;20091;-59
2022/08/28 04:26:22;;;;;;;9.52;2.47;;;17.30;99.90;;;;;;5058917;28;20044;-59
2022/08/28 04:28:49;;;;;;;6.20;2.67;;;17.30;99.90;;;;;;5058785;28;20074;-59
2022/08/28 04:31:16;;;;;;;9.23;2.53;;;17.30;99.90;;;;;;5059155;28;20037;-59
2022/08/28 04:33:42;;;;;;;8.00;2.63;;;17.10;99.90;;;;;;5058054;28;20301;-59
2022/08/28 04:36:12;;;;;;;6.35;2.45;;;17.10;99.90;;;;;;5058704;28;20055;-59
2022/08/28 04:38:39;;;;;;;7.30;2.38;;;17.00;99.90;;;;;;5074799;28;20116;-59
2022/08/28 04:41:07;;;;;;;6.70;2.47;;;16.80;99.90;;;;;;5058808;28;20045;-59
2022/08/28 04:43:33;;;;;;;9.57;2.72;;;16.70;99.90;;;;;;5058503;28;20033;-59
2022/08/28 04:46:04;;;;;;;6.25;2.35;;;16.60;99.90;;;;;;5057738;28;20029;-59
2022/08/28 04:48:29;;;;;;;6.85;2.58;;;16.60;99.90;;;;;;5058476;28;20047;-59
2022/08/28 04:50:55;;;;;;;6.68;2.53;;;16.60;99.90;;;;;;5058181;28;20033;-59
2022/08/28 04:53:21;;;;;;;7.43;2.80;;;16.50;99.90;;;;;;5058108;28;20041;-59
2022/08/28 04:55:49;;;;;;;8.45;2.30;;;16.50;99.90;;;;;;5058307;28;20044;-59
2022/08/28 04:58:16;;;;;;;12.18;2.63;;;16.40;99.90;;;;;;5058436;28;20040;-59
2022/08/28 05:00:44;;;;;;;13.45;2.90;;;16.50;99.90;;;;;;5058135;28;20052;-60
2022/08/28 05:03:10;;;;;;;6.07;2.28;;;16.40;99.90;;;;;;5058438;28;20292;-59
2022/08/28 05:05:44;;;;;;;6.82;2.35;;;16.30;99.90;;;;;;5057373;28;20044;-59
2022/08/28 05:08:11;;;;;;;8.75;2.45;;;16.30;99.90;;;;;;5058521;28;20033;-60
2022/08/28 05:10:39;;;;;;;11.15;2.83;;;16.30;99.90;;;;;;5057834;28;20021;-59
2022/08/28 05:13:05;;;;;;;10.57;2.78;;;16.20;99.90;;;;;;5057487;28;20033;-60
2022/08/28 05:15:32;;;;;;;7.65;2.67;;;16.20;99.90;;;;;;5057227;28;20297;-60
2022/08/28 05:17:58;;;;;;;7.75;3.17;;;16.20;99.90;;;;;;5057774;28;20073;-60
2022/08/28 05:20:24;;;;;;;7.13;2.50;;;16.10;99.90;;;;;;5056859;28;20045;-60
2022/08/28 05:22:50;;;;;;;11.02;2.95;;;16.00;99.90;;;;;;5057104;28;20075;-60
2022/08/28 05:25:16;;;;;;;10.27;2.80;;;16.00;99.90;;;;;;5057745;28;20021;-60
2022/08/28 05:27:42;;;;;;;11.35;2.65;;;16.00;99.90;;;;;;5057713;28;20033;-60
2022/08/28 05:30:09;;;;;;;7.90;2.65;;;16.00;99.90;;;;;;5057039;28;20033;-60
2022/08/28 05:32:35;;;;;;;6.72;2.35;;;16.10;99.90;;;;;;5057599;28;20033;-60
2022/08/28 05:35:01;;;;;;;12.10;3.30;;;16.10;99.90;;;;;;5057014;28;20098;-60
2022/08/28 05:37:27;;;;;;;10.68;2.97;;;16.20;99.90;;;;;;5058072;28;20025;-60
2022/08/28 05:39:53;;;;;;;10.18;2.60;;;16.20;99.90;;;;;;5056784;28;20037;-60
2022/08/28 05:42:19;;;;;;;9.80;3.20;;;16.20;99.90;;;;;;5057375;28;20063;-60
2022/08/28 05:44:44;;;;;;;9.27;2.63;;;16.20;99.90;;;;;;5057417;28;20389;-60
2022/08/28 05:47:11;;;;;;;7.72;3.00;;;16.10;99.90;;;;;;5057418;28;20052;-60
2022/08/28 05:49:36;;;;;;;5.53;2.95;;;16.10;99.90;;;;;;5057271;28;20036;-60
2022/08/28 05:52:02;;;;;;;10.77;3.28;;;16.00;99.90;;;;;;5057599;28;20037;-60
2022/08/28 05:54:28;;;;;;;8.30;2.72;;;16.10;99.90;;;;;;5057257;28;20055;-60
2022/08/28 05:56:54;;;;;;;11.25;2.60;;;16.30;99.90;;;;;;5056570;28;20044;-60
2022/08/28 05:59:20;;;;;;;10.68;3.15;;;16.40;99.90;;;;;;5057478;28;20045;-60
2022/08/28 06:01:48;;;;;;;8.15;3.10;;;16.40;99.90;;;;;;5057125;28;20041;-60
2022/08/28 06:04:18;;;;;;;9.57;2.95;;;16.40;99.90;;;;;;5057111;28;20098;-60
2022/08/28 06:06:45;;;;;;;11.75;3.45;;;16.40;99.90;;;;;;5057375;28;20063;-60
2022/08/28 06:09:18;;;;;;;9.98;2.60;;;16.30;99.90;;;;;;5056985;28;20029;-60
2022/08/28 06:11:45;;;;;;;8.27;3.15;;;16.50;99.90;;;;;;5057059;28;20048;-60
2022/08/28 06:14:12;;;;;;;11.15;2.90;;;16.50;99.90;;;;;;5056336;28;20060;-58
2022/08/28 06:16:43;;;;;;;11.63;2.67;;;16.60;99.90;;;;;;5056952;28;20357;-60
2022/08/28 06:19:11;;;;;;;9.77;2.78;;;16.60;99.90;;;;;;5056794;28;20098;-59
2022/08/28 06:21:40;;;;;;;11.23;2.70;;;16.50;99.90;;;;;;5056871;28;20038;-60
2022/08/28 06:24:06;;;;;;;10.32;2.97;;;16.60;99.90;;;;;;5056716;28;20392;-60
2022/08/28 06:26:33;;;;;;;7.72;2.70;;;16.70;99.90;;;;;;5056374;28;20025;-59
2022/08/28 06:29:03;;;;;;;8.48;2.83;;;16.60;99.90;;;;;;5056709;28;20021;-59
2022/08/28 06:31:30;;;;;;;6.40;2.35;;;16.70;99.90;;;;;;5056858;28;20041;-59
2022/08/28 06:33:57;;;;;;;5.00;2.40;;;16.80;99.90;;;;;;5056587;28;20297;-62
2022/08/28 06:36:26;;;;;;;7.32;2.45;;;16.90;99.90;;;;;;5057062;28;20045;-60
2022/08/28 06:38:54;;;;;;;7.85;2.92;;;17.00;99.90;;;;;;5056872;28;20025;-60
2022/08/28 06:41:20;;;;;;;9.70;2.45;;;17.10;99.90;;;;;;5072462;28;20117;-60
2022/08/28 06:43:46;;;;;;;9.82;2.50;;;17.20;99.90;;;;;;5055779;28;20032;-60
2022/08/28 06:46:12;;;;;;;7.35;2.25;;;17.30;99.90;;;;;;5056589;28;20400;-60
2022/08/28 06:48:38;;;;;;;7.00;2.42;;;17.40;99.90;;;;;;5055950;28;20029;-60
2022/08/28 06:51:10;;;;;;;10.38;2.45;;;17.50;99.90;;;;;;5056499;28;20288;-60
2022/08/28 06:53:38;;;;;;;5.75;2.20;;;17.60;99.90;;;;;;5056526;28;20041;-60
2022/08/28 06:56:07;;;;;;;8.55;2.50;;;17.70;99.90;;;;;;5056400;28;20060;-60
2022/08/28 06:58:36;;;;;;;8.05;2.15;;;17.70;99.90;;;;;;5056653;28;20025;-59
2022/08/28 07:01:03;;;;;;;14.60;3.03;;;17.80;99.90;;;;;;5056318;28;20029;-60
2022/08/28 07:03:29;;;;;;;8.20;2.17;;;17.80;99.90;;;;;;5056377;28;20037;-60
2022/08/28 07:05:59;;;;;;;9.75;2.28;;;17.90;99.90;;;;;;5056422;28;20025;-59
2022/08/28 07:08:26;;;;;;;6.55;2.33;;;17.70;99.90;;;;;;5055717;28;20053;-60
2022/08/28 07:10:53;;;;;;;9.02;2.67;;;17.70;99.90;;;;;;5056245;28;20176;-60
2022/08/28 07:13:20;;;;;;;9.65;2.63;;;17.80;99.90;;;;;;5055480;28;20037;-60
2022/08/28 07:15:47;;;;;;;5.60;2.22;;;17.90;99.90;;;;;;5056249;28;20040;-60
2022/08/28 07:18:13;;;;;;;9.95;2.30;;;17.90;99.90;;;;;;5056223;28;20037;-60
2022/08/28 07:20:39;;;;;;;6.13;2.15;;;18.10;99.90;;;;;;5055215;28;20052;-59
2022/08/28 07:23:05;;;;;;;9.07;2.50;;;18.10;99.90;;;;;;5056784;28;20029;-59
2022/08/28 07:25:31;;;;;;;11.05;3.03;;;18.20;99.90;;;;;;5056121;28;20099;-60
2022/08/28 07:27:57;;;;;;;7.45;1.73;;;18.10;99.90;;;;;;5056212;28;20028;-60
2022/08/28 07:30:23;;;;;;;4.85;2.15;;;18.20;99.90;;;;;;5056028;28;20058;-60
2022/08/28 07:32:48;;;;;;;6.53;1.83;;;18.50;99.90;;;;;;5056208;28;20041;-60
2022/08/28 07:35:15;;;;;;;6.07;1.98;;;18.50;99.90;;;;;;5056129;28;20183;-60
2022/08/28 07:37:42;;;;;;;10.23;2.05;;;18.60;99.90;;;;;;5076180;28;20415;-60
2022/08/28 07:40:09;;;;;;;6.10;2.35;;;18.70;99.90;;;;;;5058908;28;20079;-59
2022/08/28 07:45:24;;;;;;;6.35;2.22;;;18.80;99.90;;;;;;5059417;28;20049;-60
2022/08/28 07:47:50;;;;;;;6.53;2.38;;;18.70;99.90;;;;;;5059635;28;20036;-60
2022/08/28 07:50:16;;;;;;;9.05;2.13;;;18.90;99.90;;;;;;5059395;28;20037;-59
2022/08/28 07:52:42;;;;;;;9.75;2.47;;;18.70;99.90;;;;;;5058737;28;20045;-60
2022/08/28 07:55:08;;;;;;;7.78;2.10;;;18.80;99.90;;;;;;5059383;28;20495;-59
2022/08/28 07:57:34;;;;;;;10.13;2.20;;;18.80;99.90;;;;;;5059359;28;20041;-59
2022/08/28 08:00:01;;;;;;;8.35;2.30;;;19.00;99.90;;;;;;5059258;28;20120;-59
2022/08/28 08:02:37;;;;;;;9.10;2.10;;;18.90;99.90;;;;;;5059233;28;20305;-59
2022/08/28 08:05:04;;;;;;;7.75;2.00;;;18.90;99.90;;;;;;5059357;28;20040;-57
2022/08/28 08:07:31;;;;;;;7.60;2.03;;;19.00;99.90;;;;;;5059202;28;20028;-59
2022/08/28 08:09:57;;;;;;;8.27;2.00;;;19.00;99.90;;;;;;5058312;28;20033;-59
2022/08/28 08:12:23;;;;;;;6.57;2.10;;;18.90;99.90;;;;;;5059367;28;20025;-62
2022/08/28 08:14:49;;;;;;;13.23;2.30;;;19.00;99.90;;;;;;5058521;28;20068;-58
2022/08/28 08:17:14;;;;;;;6.63;2.00;;;19.20;99.90;;;;;;5058997;28;20037;-59
2022/08/28 08:19:40;;;;;;;8.32;1.95;;;19.30;99.90;;;;;;5058973;28;20069;-58
2022/08/28 08:22:06;;;;;;;6.35;2.00;;;19.30;99.90;;;;;;5059187;28;20041;-59
2022/08/28 08:24:32;;;;;;;8.82;2.25;;;19.40;99.90;;;;;;5058800;28;20025;-59
2022/08/28 08:27:00;;;;;;;10.23;2.42;;;19.30;99.90;;;;;;5059291;28;20373;-59
2022/08/28 08:29:27;;;;;;;7.10;2.00;;;19.40;99.90;;;;;;5057933;28;20065;-59
2022/08/28 08:32:03;;;;;;;7.45;1.88;;;19.40;99.90;;;;;;5058808;28;20440;-60
2022/08/28 08:34:30;;;;;;;5.10;1.65;;;19.30;99.90;;;;;;5058652;28;20464;-59
2022/08/28 08:36:56;;;;;;;11.00;2.10;;;19.30;99.90;;;;;;5058736;28;20043;-59
2022/08/28 08:39:22;;;;;;;9.90;2.15;;;19.40;99.90;;;;;;5058621;28;20025;-59
2022/08/28 08:41:57;;;;;;;7.65;2.00;;;19.40;99.90;;;;;;5058529;28;20036;-58
2022/08/28 08:44:28;;;;;;;5.38;1.80;;;19.60;99.90;;;;;;5058759;28;20033;-59
2022/08/28 08:47:23;;;;;;;10.35;2.17;;;19.50;99.90;;;;;;5058418;28;20025;-59
2022/08/28 08:50:02;;;;;;;5.32;1.95;;;19.70;99.90;;;;;;5047627;28;20170;-59
2022/08/28 08:53:09;;;;;;;8.65;1.80;;;19.80;99.90;;;;;;5058760;28;20041;-58
2022/08/28 08:55:49;;;;;;;6.63;2.17;;;19.80;99.90;;;;;;5058368;28;20316;-59
2022/08/28 08:58:38;;;;;;;8.35;2.10;;;19.90;99.90;;;;;;5058273;28;20270;-59
2022/08/28 09:01:08;;;;;;;5.75;1.75;;;20.10;99.90;;;;;;5058185;28;20057;-59
2022/08/28 09:03:53;;;;;;;5.70;1.90;;;20.20;99.90;;;;;;5057288;28;20104;-59
2022/08/28 09:06:48;;;;;;;5.80;1.48;;;20.30;99.90;;;;;;5058094;28;20128;-61
2022/08/28 09:09:33;;;;;;;7.32;1.30;;;20.40;99.90;;;;;;5058034;28;20040;-59
2022/08/28 09:12:14;;;;;;;3.20;1.70;;;20.30;99.90;;;;;;5057957;28;20417;-58
2022/08/28 09:15:07;;;;;;;5.45;1.30;;;20.30;99.90;;;;;;5058172;28;20044;-59
2022/08/28 09:17:40;;;;;;;5.32;1.52;;;20.40;99.90;;;;;;5057133;28;20075;-59
2022/08/28 09:20:08;;;;;;;5.78;1.80;;;20.50;99.90;;;;;;5057759;28;20124;-58
2022/08/28 09:22:36;;;;;;;7.03;1.83;;;20.50;99.90;;;;;;5057828;28;20035;-58
2022/08/28 09:25:05;;;;;;;3.60;1.48;;;20.70;99.90;;;;;;5057703;28;20047;-59
2022/08/28 09:27:33;;;;;;;4.93;1.40;;;20.80;99.90;;;;;;5058252;28;20061;-59
2022/08/28 09:30:07;;;;;;;4.00;1.42;;;21.00;99.90;;;;;;5057661;28;20300;-59
2022/08/28 09:32:37;;;;;;;4.65;1.48;;;21.10;99.90;;;;;;5058090;28;20033;-59
2022/08/28 09:35:31;;;;;;;6.03;1.30;;;21.00;99.90;;;;;;5058017;28;20408;-58
2022/08/28 09:38:18;;;;;;;3.63;1.60;;;21.00;99.90;;;;;;5056834;28;20301;-61
2022/08/28 09:43:31;;;;;;;4.82;1.30;;;21.00;99.90;;;;;;5057931;28;20036;-58
2022/08/28 09:46:03;;;;;;;4.10;1.50;;;21.30;99.90;;;;;;5057365;28;20037;-59
2022/08/28 09:48:34;;;;;;;3.97;1.60;;;21.30;99.90;;;;;;5056585;28;20033;-60
2022/08/28 09:51:07;;;;;;;6.30;1.50;;;21.50;99.90;;;;;;5057416;28;20037;-60
2022/08/28 09:53:50;;;;;;;4.10;1.45;;;21.60;99.90;;;;;;5057659;28;20052;-59
2022/08/28 09:56:35;;;;;;;;;;;21.60;99.90;;;;;;5057648;28;20311;-59
2022/08/28 09:59:04;;;;;;;7.60;1.77;;;21.60;99.90;;;;;;5056522;28;19935;-59
2022/08/28 10:01:47;;;;;;;4.88;1.50;;;21.60;99.90;;;;;;5072659;28;20035;-59
2022/08/28 10:04:25;;;;;;;7.25;1.50;;;21.80;99.90;;;;;;5057510;28;20471;-59
2022/08/28 10:06:57;;;;;;;8.13;1.58;;;21.80;99.90;;;;;;5057941;28;20036;-59
2022/08/28 10:09:49;;;;;;;5.40;1.40;;;21.90;99.90;;;;;;5057089;28;20067;-59
2022/08/28 10:12:33;;;;;;;4.03;1.20;;;21.80;99.90;;;;;;5056971;28;20044;-60
2022/08/28 10:15:20;;;;;;;4.97;1.25;;;21.70;99.90;;;;;;5057034;28;20048;-59
2022/08/28 10:18:05;;;;;;;3.35;1.17;;;21.60;99.90;;;;;;5057454;28;20403;-59
2022/08/28 10:20:46;;;;;;;2.72;1.17;;;21.60;99.90;;;;;;5056717;28;20463;-59
2022/08/28 10:23:43;;;;;;;4.88;1.45;;;21.80;99.90;;;;;;5057138;28;20055;-59
2022/08/28 10:26:49;;;;;;;5.60;1.60;;;22.10;99.90;;;;;;5057008;28;20025;-59
2022/08/28 10:29:15;;;;;;;6.78;1.33;;;22.40;99.90;;;;;;5035078;28;20045;-59
2022/08/28 10:31:56;;;;;;;5.43;1.30;;;22.70;99.90;;;;;;5056716;28;20032;-59
2022/08/28 10:34:36;;;;;;;3.45;1.30;;;22.70;99.90;;;;;;5056787;28;20029;-59
2022/08/28 10:37:13;;;;;;;2.90;1.13;;;23.30;99.90;;;;;;5056633;28;20075;-59
2022/08/28 10:40:01;;;;;;;3.95;1.25;;;23.70;99.90;;;;;;5056576;28;20025;-59
2022/08/28 10:43:05;;;;;;;4.43;1.27;;;23.60;99.90;;;;;;5055650;28;20040;-59
2022/08/28 10:45:33;;;;;;;6.13;1.20;;;23.60;99.90;;;;;;5015854;28;20052;-59
2022/08/28 10:48:07;;;;;;;2.80;1.20;;;24.30;99.90;;;;;;5056565;28;20017;-59
2022/08/28 10:51:01;;;;;;;5.78;1.30;;;25.20;99.90;;;;;;5056398;28;20048;-59
2022/08/28 10:53:38;;;;;;;4.15;1.05;;;26.60;99.90;;;;;;5057143;28;20262;-60
2022/08/28 10:56:19;;;;;;;3.05;1.02;;;27.00;99.90;;;;;;5072487;28;20297;-59
2022/08/28 10:58:48;;;;;;;2.53;1.10;;;27.30;99.90;;;;;;5057010;28;20325;-60
2022/08/28 11:01:41;;;;;;;2.80;1.10;;;28.50;99.90;;;;;;5055511;28;20445;-60
2022/08/28 11:04:19;;;;;;;3.10;1.23;;;29.70;99.90;;;;;;5056771;28;20132;-59
2022/08/28 11:07:03;;;;;;;1.55;0.98;;;30.80;99.90;;;;;;5056412;28;20134;-59
2022/08/28 11:09:36;;;;;;;9.50;1.17;;;30.50;99.60;;;;;;5056354;28;20389;-60
2022/08/28 11:12:18;;;;;;;5.25;1.13;;;29.50;99.90;;;;;;5058660;28;20025;-60
2022/08/28 11:14:47;;;;;;;3.53;1.38;;;29.50;99.90;;;;;;5060451;28;20059;-59
2022/08/28 11:17:26;;;;;;;3.42;1.10;;;30.10;99.30;;;;;;5059544;28;20061;-59
2022/08/28 11:20:10;;;;;;;6.28;1.30;;;29.50;98.40;;;;;;5076116;28;20051;-60
2022/08/28 11:22:51;;;;;;;3.88;1.20;;;29.00;99.50;;;;;;5060523;28;20401;-60
2022/08/28 11:25:25;;;;;;;3.13;1.17;;;27.40;99.90;;;;;;5059225;28;20121;-59
2022/08/28 11:28:21;;;;;;;3.90;1.48;;;27.30;99.90;;;;;;5059981;28;20028;-57
2022/08/28 11:30:57;;;;;;;4.55;1.10;;;26.70;99.90;;;;;;5059893;28;20027;-60
2022/08/28 11:33:44;;;;;;;3.35;1.20;;;26.90;99.90;;;;;;5059771;28;20040;-59
2022/08/28 11:36:11;;;;;;;4.72;1.20;;;27.40;99.90;;;;;;5067314;22;20099;-61
2022/08/28 11:38:40;;;;;;;4.32;1.15;;;27.60;99.90;;;;;;5059643;28;20285;-59
2022/08/28 11:41:23;;;;;;;3.60;1.30;;;27.70;99.90;;;;;;5059735;28;20332;-60
2022/08/28 11:43:51;;;;;;;2.20;0.90;;;28.20;99.90;;;;;;5060043;28;20029;-61
2022/08/28 11:46:31;;;;;;;2.92;0.80;;;29.90;98.50;;;;;;5042176;28;20364;-58
2022/08/28 11:48:59;;;;;;;2.55;1.05;;;30.20;97.20;;;;;;5059480;28;20056;-59
2022/08/28 11:51:36;;;;;;;2.72;1.10;;;30.90;95.70;;;;;;5059476;28;20028;-59
2022/08/28 11:54:30;;;;;;;2.95;1.00;;;30.80;94.90;;;;;;5042042;28;20132;-60
2022/08/28 11:57:30;;;;;;;2.63;1.10;;;30.90;92.50;;;;;;5058749;28;20029;-59
2022/08/28 12:00:09;;;;;;;3.45;1.25;;;30.50;93.80;;;;;;5059551;28;20142;-59
2022/08/28 12:02:38;;;;;;;4.63;1.13;;;29.60;93.40;;;;;;5041855;28;20451;-59
2022/08/28 12:05:16;;;;;;;2.03;1.05;;;29.50;95.50;;;;;;5059248;28;20029;-59
2022/08/28 12:07:44;;;;;;;2.80;1.05;;;30.30;93.40;;;;;;5059208;28;20052;-59
2022/08/28 12:10:26;;;;;;;3.47;1.00;;;31.60;92.60;;;;;;5041818;28;20086;-59
2022/08/28 12:13:06;;;;;;;3.10;1.00;;;33.30;90.30;;;;;;5059682;28;20481;-60
2022/08/28 12:15:32;;;;;;;2.60;1.00;;;33.80;82.80;;;;;;5059081;28;20328;-59
2022/08/28 12:18:08;;;;;;;3.85;1.10;;;33.70;80.70;;;;;;5058920;28;20112;-59
2022/08/28 12:20:49;;;;;;;3.88;1.00;;;33.70;78.70;;;;;;5058987;28;20033;-60
2022/08/28 12:23:33;;;;;;;3.35;1.13;;;32.90;78.20;;;;;;5058348;28;20047;-60
2022/08/28 12:26:29;;;;;;;3.53;0.98;;;33.70;78.10;;;;;;5058874;28;20059;-59
2022/08/28 12:29:20;;;;;;;2.53;0.98;;;34.70;74.20;;;;;;5058790;28;20389;-60
2022/08/28 12:32:10;;;;;;;2.28;1.00;;;35.50;72.70;;;;;;5058824;28;20292;-59
2022/08/28 12:35:08;;;;;;;3.85;1.10;;;35.90;67.70;;;;;;5058917;28;20025;-59
2022/08/28 12:37:45;;;;;;;4.20;1.02;;;35.50;64.90;;;;;;5039789;28;20056;-61
2022/08/28 12:40:17;;;;;;;2.83;1.05;;;35.80;64.80;;;;;;5058552;28;20075;-59
2022/08/28 12:42:54;;;;;;;2.17;1.00;;;33.80;67.10;;;;;;5058492;28;20033;-59
2022/08/28 12:45:39;;;;;;;3.28;1.02;;;34.80;66.20;;;;;;5058497;28;20342;-59
2022/08/28 12:48:14;;;;;;;4.65;1.17;;;36.20;61.80;;;;;;5058456;28;20021;-59
2022/08/28 12:50:40;;;;;;;4.75;1.20;;;34.90;60.40;;;;;;5058318;28;20040;-59
2022/08/28 12:53:13;;;;;;;2.33;1.00;;;33.70;63.70;;;;;;5058338;28;20393;-60
2022/08/28 12:55:44;;;;;;;3.47;0.90;;;32.60;65.90;;;;;;5058310;28;20056;-59
2022/08/28 12:58:35;;;;;;;2.72;1.00;;;33.40;65.10;;;;;;5041044;28;20278;-60
2022/08/28 13:01:07;;;;;;;4.57;1.00;;;34.30;65.90;;;;;;5046627;28;20048;-59
2022/08/28 13:03:54;;;;;;;2.15;0.90;;;36.40;60.70;;;;;;5058410;28;20397;-61
2022/08/28 13:06:27;;;;;;;2.40;0.95;;;36.90;57.70;;;;;;5040069;28;20339;-60
2022/08/28 13:09:02;;;;;;;2.10;0.73;;;35.60;57.30;;;;;;5058084;28;20056;-60
2022/08/28 13:11:39;;;;;;;4.68;1.23;;;33.20;60.00;;;;;;5058205;28;20040;-59
2022/08/28 13:14:07;;;;;;;4.30;0.90;;;32.40;62.20;;;;;;5058317;28;20309;-59
2022/08/28 13:16:43;;;;;;;2.50;0.80;;;32.10;64.30;;;;;;5057933;28;20033;-60